sim
Sign-in with your pilot id or email,
or register
Callsign
Passwort

Schedule Details

Flight Number: DLH1759
Departure: Heraklion International Airport (LGIR) at 11:20
Arrival: Munich Airport (EDDM) at 14:20
Route: Lufthansa Passenger Schedule. Enter filed route here before submitting Pirep.

Weather Information
Getting current METAR information for LGIR 220050Z 27007KT 9999 SCT020 23/18 Q1016 NOSIG
Getting current METAR information for EDDM 220050Z VRB01KT 5000 1200N R08L/0800D R08R/P2000N BCFG NSC 08/08 Q1015 TEMPO 2500

Schedule Frequency

Route Map